Time;durP1;ratioP1;P1;durP2;ratioP2;P2;SDS_P1;SDS_P2;PMS_P1;PMS_P2;Temp;Humidity;BMP_temperature;BMP_pressure;BME280_temperature;BME280_humidity;BME280_pressure;Samples;Min_cycle;Max_cycle;Signal;HPM_P1;HPM_P2
2024/02/06 09:59:08;;;;;;;3.60;1.40;;;;;;;6.55;58.88;99264.65;103727;1286;60515;-69
2024/02/06 10:01:37;;;;;;;4.40;1.20;;;;;;;6.60;58.66;99267.61;105535;1264;65357;-64
2024/02/06 10:04:05;;;;;;;3.20;1.40;;;;;;;6.68;58.36;99268.52;105773;1263;64682;-71
2024/02/06 10:06:33;;;;;;;3.80;1.70;;;;;;;6.71;58.02;99261.10;105638;1265;66797;-66
2024/02/06 10:09:01;;;;;;;6.90;3.80;;;;;;;6.73;58.07;99259.06;105469;1267;60486;-68
2024/02/06 10:11:30;;;;;;;3.60;1.40;;;;;;;6.74;58.09;99261.36;105800;1265;60466;-59
2024/02/06 10:13:57;;;;;;;5.20;1.50;;;;;;;6.73;57.92;99265.30;108046;1265;65387;-63
2024/02/06 10:16:24;;;;;;;7.40;3.60;;;;;;;6.70;57.96;99264.27;107618;1264;60424;-63
2024/02/06 10:18:52;;;;;;;6.80;2.90;;;;;;;6.69;57.99;99259.37;105955;1266;67326;-61
2024/02/06 10:21:19;;;;;;;6.50;2.20;;;;;;;6.66;58.04;99263.62;105937;1268;60483;-62
2024/02/06 10:23:49;;;;;;;8.80;4.20;;;;;;;6.63;58.14;99255.77;106920;1262;59824;-61
2024/02/06 10:26:23;;;;;;;5.40;1.70;;;;;;;6.66;58.20;99255.42;106037;1264;63644;-62
2024/02/06 10:28:50;;;;;;;6.70;3.00;;;;;;;6.71;58.04;99258.30;105777;1269;62202;-61
2024/02/06 10:31:17;;;;;;;7.00;3.60;;;;;;;6.77;57.82;99248.23;106273;1264;62609;-61
2024/02/06 10:33:44;;;;;;;7.70;1.90;;;;;;;6.80;57.75;99250.73;105983;1268;60571;-63
2024/02/06 10:36:14;;;;;;;6.30;4.00;;;;;;;6.81;57.88;99250.55;105413;1262;60501;-60
2024/02/06 10:38:42;;;;;;;6.20;1.70;;;;;;;6.86;58.08;99248.21;105400;1263;63883;-62
2024/02/06 10:41:13;;;;;;;6.20;3.10;;;;;;;6.92;58.05;99247.40;107249;1267;61667;-67
2024/02/06 10:43:54;;;;;;;4.80;1.60;;;;;;;6.90;57.68;99246.86;105623;1266;63803;-65
2024/02/06 10:46:23;;;;;;;5.60;1.50;;;;;;;6.87;57.85;99246.84;108614;1257;59122;-64
2024/02/06 10:48:52;;;;;;;4.30;1.50;;;;;;;6.87;57.69;99241.30;108409;1258;59442;-63
2024/02/06 10:51:23;;;;;;;5.60;3.00;;;;;;;6.86;57.70;99243.13;108378;1257;65078;-64
2024/02/06 10:53:57;;;;;;;3.50;1.10;;;;;;;6.88;57.71;99242.99;108415;1263;61652;-63
2024/02/06 10:56:24;;;;;;;3.60;1.30;;;;;;;6.93;57.64;99248.30;108488;1257;64567;-63
2024/02/06 10:58:56;;;;;;;4.90;2.10;;;;;;;7.01;57.50;99245.39;108596;1256;60781;-63
2024/02/06 11:01:41;;;;;;;5.90;1.50;;;;;;;7.09;57.50;99244.38;108647;1260;58755;-62
2024/02/06 11:04:10;;;;;;;7.80;2.90;;;;;;;7.12;57.29;99240.15;108613;1254;67254;-64
2024/02/06 11:06:42;;;;;;;3.00;1.00;;;;;;;7.08;57.23;99243.73;108615;1254;61796;-64
2024/02/06 11:09:11;;;;;;;6.40;3.10;;;;;;;7.06;57.32;99237.48;108436;1262;62934;-65
2024/02/06 11:11:38;;;;;;;5.80;1.00;;;;;;;7.05;57.47;99238.73;108578;1258;60658;-64
2024/02/06 11:14:05;;;;;;;4.00;1.20;;;;;;;7.05;57.56;99236.14;108302;1255;59884;-65
2024/02/06 11:16:34;;;;;;;6.80;3.10;;;;;;;7.04;57.73;99237.08;106051;1255;67527;-65
2024/02/06 11:19:16;;;;;;;3.00;1.00;;;;;;;7.03;57.80;99234.08;105770;1257;310764;-70
2024/02/06 11:33:31;;;;;;;4.60;1.20;;;;;;;7.21;58.23;99230.80;103775;1286;605341;-83
2024/02/06 11:36:12;;;;;;;7.20;3.60;;;;;;;8.03;56.42;99228.34;104975;1270;155106;-83
2024/02/06 11:38:39;;;;;;;5.80;1.20;;;;;;;8.02;56.19;99230.84;105451;1267;59244;-82
2024/02/06 11:41:11;;;;;;;6.30;2.60;;;;;;;8.01;56.37;99227.97;105300;1269;64115;-80
2024/02/06 11:43:40;;;;;;;5.20;2.70;;;;;;;8.01;56.39;99227.81;105895;1264;61783;-81
2024/02/06 11:46:09;;;;;;;3.30;0.90;;;;;;;7.98;56.43;99227.72;105372;1268;72070;-85
2024/02/06 11:48:36;;;;;;;5.40;2.50;;;;;;;7.92;56.30;99225.08;105635;1260;61482;-81
2024/02/06 11:51:04;;;;;;;4.20;1.20;;;;;;;7.86;56.29;99220.39;108346;1258;58719;-82
2024/02/06 11:53:33;;;;;;;6.60;3.00;;;;;;;7.78;56.28;99215.81;105671;1263;62154;-81
2024/02/06 11:56:03;;;;;;;4.60;1.20;;;;;;;7.68;56.36;99211.29;105913;1260;61801;-79
2024/02/06 11:58:36;;;;;;;4.10;0.90;;;;;;;7.61;56.49;99213.07;106386;1259;66087;-79
2024/02/06 12:01:06;;;;;;;3.60;1.00;;;;;;;7.53;56.64;99206.80;106121;1260;59653;-80
2024/02/06 12:03:34;;;;;;;3.50;0.70;;;;;;;7.53;56.71;99208.76;105518;1260;59719;-82
2024/02/06 12:06:02;;;;;;;4.80;2.00;;;;;;;7.56;56.77;99209.52;105926;1260;64299;-80
2024/02/06 12:08:32;;;;;;;1.80;0.80;;;;;;;7.55;56.67;99204.88;105956;1266;73005;-80
2024/02/06 12:11:01;;;;;;;4.80;2.10;;;;;;;7.53;56.75;99206.64;105589;1261;74929;-82
2024/02/06 12:13:32;;;;;;;1.80;0.50;;;;;;;7.49;56.97;99205.78;105543;1261;59841;-83
2024/02/06 12:16:04;;;;;;;2.70;0.60;;;;;;;7.44;57.06;99198.46;105665;1261;59653;-83
2024/02/06 12:18:32;;;;;;;6.40;1.90;;;;;;;7.38;57.10;99193.82;106274;1260;71821;-81
2024/02/06 12:20:59;;;;;;;2.30;0.50;;;;;;;7.30;57.15;99194.64;105908;1261;60648;-83
2024/02/06 12:23:27;;;;;;;5.60;2.20;;;;;;;7.22;57.26;99192.54;106353;1264;62928;-81
2024/02/06 12:25:55;;;;;;;2.90;0.80;;;;;;;7.14;57.30;99190.41;108556;1258;59413;-82
2024/02/06 12:28:22;;;;;;;2.50;0.90;;;;;;;7.12;57.29;99193.89;109088;1259;61145;-82
2024/02/06 12:30:59;;;;;;;5.50;1.50;;;;;;;7.15;57.25;99191.05;108674;1259;62975;-82
2024/02/06 12:33:26;;;;;;;2.30;0.50;;;;;;;7.21;57.37;99190.34;107912;1260;60284;-81
2024/02/06 12:35:54;;;;;;;2.60;0.80;;;;;;;7.27;57.46;99197.35;105362;1260;62975;-80
2024/02/06 12:38:22;;;;;;;4.80;1.80;;;;;;;7.27;57.39;99194.05;106187;1260;59925;-83
2024/02/06 12:40:49;;;;;;;4.10;1.20;;;;;;;7.26;57.38;99196.55;105632;1259;60085;-83
2024/02/06 12:43:18;;;;;;;6.40;2.20;;;;;;;7.26;57.59;99198.14;105461;1261;75253;-82
2024/02/06 12:45:45;;;;;;;2.30;0.70;;;;;;;7.23;57.57;99194.99;105596;1264;60429;-82
2024/02/06 12:48:13;;;;;;;3.90;1.00;;;;;;;7.20;57.51;99195.61;105516;1260;64899;-83
2024/02/06 12:50:41;;;;;;;2.10;0.60;;;;;;;7.12;57.39;99193.73;105486;1264;59753;-83
2024/02/06 12:53:10;;;;;;;4.00;1.00;;;;;;;7.01;57.60;99191.00;105548;1260;59737;-82
2024/02/06 12:55:39;;;;;;;3.10;0.80;;;;;;;6.93;57.94;99197.20;106272;1260;65973;-78
2024/02/06 12:58:08;;;;;;;3.60;0.60;;;;;;;6.91;58.10;99190.06;105668;1260;62283;-83
2024/02/06 13:00:38;;;;;;;4.40;1.80;;;;;;;6.92;58.29;99189.85;105668;1260;64142;-83
2024/02/06 13:03:07;;;;;;;1.70;0.30;;;;;;;7.01;58.39;99184.21;107629;1260;59729;-82
2024/02/06 13:05:35;;;;;;;3.20;0.80;;;;;;;7.14;58.51;99175.61;107818;1260;59259;-81
2024/02/06 13:08:05;;;;;;;3.20;0.50;;;;;;;7.32;58.59;99175.48;105603;1260;65907;-83
2024/02/06 13:10:33;;;;;;;4.90;0.60;;;;;;;7.47;58.55;99175.25;105509;1263;62461;-81
2024/02/06 13:13:04;;;;;;;3.80;1.20;;;;;;;7.53;58.31;99177.67;105578;1260;66006;-78
2024/02/06 13:15:34;;;;;;;4.40;2.00;;;;;;;7.51;58.05;99188.19;105660;1267;59763;-82
2024/02/06 13:18:02;;;;;;;2.70;0.70;;;;;;;7.41;57.90;99194.02;106172;1260;59679;-81
2024/02/06 13:20:37;;;;;;;2.40;0.70;;;;;;;7.29;57.87;99194.52;105687;1260;66355;-82
2024/02/06 13:23:12;;;;;;;3.70;0.90;;;;;;;7.15;58.16;99189.94;106155;1260;62030;-84
2024/02/06 13:25:40;;;;;;;2.80;0.80;;;;;;;7.11;58.43;99187.39;105987;1258;62965;-82
2024/02/06 13:28:07;;;;;;;4.20;2.20;;;;;;;7.09;58.52;99180.23;105952;1259;59722;-80
2024/02/06 13:30:35;;;;;;;4.10;1.40;;;;;;;7.06;58.69;99176.45;105997;1257;59731;-80
2024/02/06 13:33:24;;;;;;;3.40;0.80;;;;;;;7.07;58.70;99167.27;106566;1257;74065;-82
2024/02/06 13:35:53;;;;;;;5.20;2.20;;;;;;;7.14;58.77;99161.45;109460;1254;60611;-79
2024/02/06 13:38:21;;;;;;;3.20;0.90;;;;;;;7.23;58.69;99163.46;109334;1255;64616;-79
2024/02/06 13:40:48;;;;;;;2.70;0.80;;;;;;;7.30;58.75;99157.67;109060;1254;57551;-77
2024/02/06 13:43:16;;;;;;;6.20;3.00;;;;;;;7.30;58.67;99158.74;109343;1254;58529;-81
2024/02/06 13:45:44;;;;;;;3.90;1.20;;;;;;;7.28;58.65;99161.54;107920;1254;66417;-78
2024/02/06 13:48:22;;;;;;;5.50;2.70;;;;;;;7.23;58.70;99161.88;108675;1254;71460;-80
2024/02/06 13:50:54;;;;;;;3.20;1.20;;;;;;;7.23;58.83;99165.71;108977;1254;74888;-80
2024/02/06 13:53:21;;;;;;;3.30;1.10;;;;;;;7.21;58.68;99161.69;109071;1254;59157;-81
2024/02/06 13:55:50;;;;;;;5.40;2.60;;;;;;;7.16;58.90;99161.80;108131;1255;59663;-82
2024/02/06 13:58:18;;;;;;;3.00;0.80;;;;;;;7.16;58.95;99153.44;106979;1254;64583;-82
2024/02/06 14:00:46;;;;;;;4.90;2.30;;;;;;;7.20;59.00;99154.73;106231;1260;60329;-82
2024/02/06 14:03:13;;;;;;;3.80;2.10;;;;;;;7.25;58.94;99153.86;108375;1254;74907;-81
2024/02/06 14:05:41;;;;;;;5.20;2.60;;;;;;;7.34;59.04;99152.05;106190;1254;59746;-83
2024/02/06 14:08:08;;;;;;;4.80;2.60;;;;;;;7.39;58.98;99145.17;106221;1254;59716;-80
2024/02/06 14:10:36;;;;;;;4.20;1.00;;;;;;;7.41;59.02;99147.00;107944;1254;74042;-82
2024/02/06 14:13:09;;;;;;;6.00;2.70;;;;;;;7.36;59.08;99146.88;109242;1254;61841;-79
2024/02/06 14:15:45;;;;;;;4.80;1.60;;;;;;;7.32;59.18;99150.55;108067;1254;76294;-89
2024/02/06 14:18:14;;;;;;;5.60;2.80;;;;;;;7.31;59.13;99159.36;107067;1260;59649;-89
2024/02/06 14:20:45;;;;;;;4.70;1.50;;;;;;;7.25;59.25;99160.33;107169;1261;59628;-88
2024/02/06 14:23:15;;;;;;;5.70;3.30;;;;;;;7.19;59.34;99153.72;106994;1259;66574;-87
2024/02/06 14:25:45;;;;;;;4.60;1.10;;;;;;;7.17;59.64;99150.25;106866;1269;70357;-87
2024/02/06 14:28:15;;;;;;;7.20;1.50;;;;;;;7.25;59.50;99151.32;106912;1261;65416;-86
2024/02/06 14:30:45;;;;;;;6.80;4.20;;;;;;;7.36;59.43;99155.38;106917;1260;61137;-87
2024/02/06 14:33:15;;;;;;;4.20;1.50;;;;;;;7.44;59.42;99162.19;107150;1257;61670;-87
2024/02/06 14:35:45;;;;;;;8.40;5.00;;;;;;;7.48;59.51;99162.60;106945;1258;72811;-87
2024/02/06 14:38:15;;;;;;;6.80;2.20;;;;;;;7.49;59.47;99162.84;107227;1265;73013;-87
2024/02/06 14:40:46;;;;;;;9.40;5.40;;;;;;;7.49;59.58;99160.72;107079;1257;66233;-87
2024/02/06 14:43:18;;;;;;;7.80;3.60;;;;;;;7.53;59.65;99162.13;106972;1260;59692;-91
2024/02/06 14:45:48;;;;;;;15.00;8.20;;;;;;;7.51;59.64;99150.96;107137;1258;61483;-91
2024/02/06 14:48:18;;;;;;;6.20;2.70;;;;;;;7.49;59.63;99146.09;106990;1260;74522;-92
2024/02/06 14:50:48;;;;;;;4.70;1.80;;;;;;;7.52;59.67;99141.81;106933;1260;62742;-91
2024/02/06 14:53:17;;;;;;;7.50;4.20;;;;;;;7.60;59.59;99141.59;106996;1257;66067;-90
2024/02/06 14:55:46;;;;;;;5.70;1.70;;;;;;;7.65;59.51;99141.58;107751;1260;57653;-91
2024/02/06 14:58:16;;;;;;;5.90;1.90;;;;;;;7.69;59.51;99140.87;107214;1256;59774;-94
2024/02/06 15:00:47;;;;;;;6.10;3.50;;;;;;;7.68;59.46;99139.91;106925;1256;74540;-92
2024/02/06 15:03:17;;;;;;;6.20;2.30;;;;;;;7.63;59.54;99144.88;107210;1265;72395;-92
2024/02/06 15:05:46;;;;;;;5.20;1.80;;;;;;;7.63;59.66;99145.90;107146;1257;71337;-93
2024/02/06 15:08:17;;;;;;;8.40;4.80;;;;;;;7.60;59.65;99138.68;107090;1257;60979;-92
2024/02/06 15:10:48;;;;;;;5.00;1.30;;;;;;;7.58;59.69;99140.95;107041;1257;59664;-91
2024/02/06 15:13:18;;;;;;;7.20;3.90;;;;;;;7.61;59.62;99141.21;107076;1256;65982;-91
2024/02/06 15:15:48;;;;;;;3.40;1.10;;;;;;;7.65;59.36;99147.88;106872;1267;70151;-91
2024/02/06 15:18:19;;;;;;;6.80;4.30;;;;;;;7.67;59.49;99148.36;107087;1261;66612;-91
2024/02/06 15:20:49;;;;;;;3.40;1.20;;;;;;;7.71;59.51;99146.83;107063;1264;59439;-91
2024/02/06 15:23:27;;;;;;;7.80;4.30;;;;;;;7.73;59.66;99149.39;106990;1257;59908;-91
2024/02/06 15:25:56;;;;;;;4.30;1.50;;;;;;;7.74;59.76;99149.84;106941;1263;66194;-90
2024/02/06 15:28:26;;;;;;;7.10;4.30;;;;;;;7.75;59.83;99148.89;107141;1258;64360;-91
2024/02/06 15:30:56;;;;;;;6.30;2.40;;;;;;;7.76;59.86;99146.01;107130;1261;65519;-91
2024/02/06 15:33:25;;;;;;;5.80;2.10;;;;;;;7.77;59.98;99148.02;107091;1257;61982;-91
2024/02/06 15:35:56;;;;;;;7.40;3.90;;;;;;;7.75;59.92;99149.73;107123;1256;59237;-91
2024/02/06 15:38:26;;;;;;;7.30;1.70;;;;;;;7.74;59.92;99155.77;107538;1257;67068;-91
2024/02/06 15:41:01;;;;;;;3.20;1.00;;;;;;;7.78;59.82;99160.65;107086;1256;63194;-90
2024/02/06 15:43:31;;;;;;;7.00;4.20;;;;;;;7.84;59.65;99161.58;107232;1256;65179;-91
2024/02/06 15:46:03;;;;;;;4.30;1.20;;;;;;;7.89;59.60;99167.59;107039;1256;60496;-88
2024/02/06 15:48:32;;;;;;;6.60;4.30;;;;;;;7.90;59.32;99161.54;107235;1266;63544;-88
2024/02/06 15:51:03;;;;;;;7.20;2.30;;;;;;;7.91;59.38;99161.95;107221;1258;66771;-88
2024/02/06 15:53:33;;;;;;;9.80;5.00;;;;;;;7.91;59.44;99155.66;107332;1257;63077;-88
2024/02/06 15:56:26;;;;;;;6.10;2.50;;;;;;;7.87;59.35;99153.58;107312;1257;66873;-88
2024/02/06 15:58:55;;;;;;;5.20;2.30;;;;;;;7.84;59.69;99149.36;106708;1260;63171;-89
2024/02/06 16:01:25;;;;;;;8.40;4.90;;;;;;;7.82;59.81;99154.56;106883;1260;60666;-89
2024/02/06 16:03:57;;;;;;;5.80;2.40;;;;;;;7.79;59.92;99152.13;106862;1269;76663;-89
2024/02/06 16:06:32;;;;;;;4.70;1.60;;;;;;;7.85;59.89;99148.70;106941;1267;61551;-88
2024/02/06 16:09:05;;;;;;;11.00;5.70;;;;;;;7.91;59.83;99148.02;106665;1264;66480;-88
2024/02/06 16:11:35;;;;;;;6.40;2.80;;;;;;;7.94;59.79;99145.78;106863;1270;62124;-88
2024/02/06 16:14:04;;;;;;;8.40;6.00;;;;;;;7.93;59.80;99143.83;106730;1261;59201;-88
2024/02/06 16:16:36;;;;;;;7.10;3.60;;;;;;;7.91;59.93;99142.78;107615;1260;74312;-89
2024/02/06 16:19:07;;;;;;;5.80;2.50;;;;;;;7.89;59.96;99140.30;106945;1265;64424;-88
2024/02/06 16:21:55;;;;;;;9.90;6.30;;;;;;;7.86;60.11;99145.29;106826;1260;63269;-86
2024/02/06 16:24:25;;;;;;;6.60;2.50;;;;;;;7.79;59.91;99140.86;106692;1259;60553;-88
2024/02/06 16:26:55;;;;;;;11.40;6.70;;;;;;;7.73;59.90;99141.73;106917;1260;60691;-88
2024/02/06 16:29:25;;;;;;;6.20;2.50;;;;;;;7.70;60.09;99139.75;106640;1261;66899;-88
2024/02/06 16:31:55;;;;;;;6.50;2.10;;;;;;;7.69;60.11;99140.20;106784;1260;64113;-87
2024/02/06 16:34:25;;;;;;;11.40;6.90;;;;;;;7.72;60.05;99138.67;106795;1259;75015;-85
2024/02/06 16:37:08;;;;;;;5.60;1.60;;;;;;;7.76;60.18;99141.13;106678;1260;64312;-87
2024/02/06 16:39:38;;;;;;;8.40;3.80;;;;;;;7.82;60.15;99144.42;106765;1260;60465;-86
2024/02/06 16:42:08;;;;;;;10.00;7.20;;;;;;;7.84;60.16;99125.06;107012;1260;74054;-87
2024/02/06 16:44:37;;;;;;;16.70;5.50;;;;;;;7.83;60.28;99132.33;106795;1260;63607;-86
2024/02/06 16:47:07;;;;;;;11.00;7.80;;;;;;;7.80;60.20;99131.91;108004;1260;65808;-86
2024/02/06 16:49:38;;;;;;;10.00;4.60;;;;;;;7.72;60.27;99126.08;107821;1259;58301;-88
2024/02/06 16:52:19;;;;;;;7.10;3.50;;;;;;;7.68;60.41;99125.08;107154;1267;60715;-87
2024/02/06 16:54:49;;;;;;;12.80;8.60;;;;;;;7.62;60.52;99118.97;107250;1258;73905;-87
2024/02/06 16:57:18;;;;;;;11.60;4.80;;;;;;;7.57;60.63;99110.48;107326;1260;63139;-86
2024/02/06 16:59:49;;;;;;;6.80;2.80;;;;;;;7.59;60.62;99116.05;107083;1257;75111;-85
2024/02/06 17:02:18;;;;;;;13.90;9.10;;;;;;;7.62;60.62;99113.84;107132;1262;63167;-85
2024/02/06 17:04:48;;;;;;;7.00;2.40;;;;;;;7.70;60.71;99111.83;107202;1263;60473;-87
2024/02/06 17:07:19;;;;;;;13.40;8.70;;;;;;;7.78;60.64;99102.21;107208;1257;66220;-86
2024/02/06 17:09:49;;;;;;;14.20;7.10;;;;;;;7.79;60.75;99101.08;107264;1257;71390;-85
2024/02/06 17:12:45;;;;;;;12.60;8.30;;;;;;;7.80;60.84;99111.97;107152;1259;64513;-86
2024/02/06 17:15:16;;;;;;;10.10;3.20;;;;;;;7.75;60.74;99110.09;107258;1262;60178;-86
2024/02/06 17:17:56;;;;;;;13.30;8.50;;;;;;;7.67;60.84;99103.55;107454;1257;58997;-86
2024/02/06 17:20:30;;;;;;;8.20;3.70;;;;;;;7.60;61.20;99100.62;106999;1259;67543;-87
2024/02/06 17:23:09;;;;;;;6.00;2.70;;;;;;;7.61;61.29;99101.55;107237;1259;63597;-87
2024/02/06 17:25:37;;;;;;;12.90;8.80;;;;;;;7.67;61.33;99104.55;107243;1263;62816;-86
2024/02/06 17:28:08;;;;;;;8.60;3.50;;;;;;;7.73;61.24;99100.23;106882;1260;60438;-86
2024/02/06 17:30:38;;;;;;;9.40;4.10;;;;;;;7.75;61.38;99095.84;107259;1259;62681;-87
2024/02/06 17:33:13;;;;;;;11.80;4.40;;;;;;;7.75;61.54;99092.64;105060;1257;73590;-56
2024/02/06 17:35:42;;;;;;;12.80;8.90;;;;;;;7.78;61.73;99092.20;103790;1260;61866;-51
2024/02/06 17:38:10;;;;;;;12.90;8.50;;;;;;;7.80;61.77;99095.16;108154;1259;66441;-54
2024/02/06 17:40:42;;;;;;;12.20;5.20;;;;;;;7.79;61.73;99093.20;108237;1259;63781;-55
2024/02/06 17:43:10;;;;;;;12.90;3.40;;;;;;;7.81;61.71;99093.23;108156;1259;60104;-54
2024/02/06 17:45:38;;;;;;;9.70;3.90;;;;;;;7.86;61.61;99094.53;108285;1259;64061;-54
2024/02/06 17:48:06;;;;;;;13.60;9.50;;;;;;;7.90;61.77;99089.38;108208;1260;60665;-54
2024/02/06 17:50:34;;;;;;;10.70;4.90;;;;;;;7.95;61.82;99087.77;108280;1260;62782;-53
2024/02/06 17:53:02;;;;;;;15.40;10.20;;;;;;;7.96;62.06;99092.16;104333;1262;60576;-55
2024/02/06 17:55:29;;;;;;;12.60;5.40;;;;;;;7.98;62.36;99087.48;103777;1261;60433;-55
2024/02/06 17:57:57;;;;;;;16.30;11.10;;;;;;;7.99;62.49;99084.20;103752;1263;67748;-54
2024/02/06 18:00:24;;;;;;;9.20;4.20;;;;;;;8.00;62.52;99080.48;103962;1264;61623;-54
2024/02/06 18:02:53;;;;;;;14.30;10.70;;;;;;;8.00;62.50;99072.30;103906;1264;62531;-55
2024/02/06 18:05:22;;;;;;;7.40;3.50;;;;;;;7.99;62.57;99071.71;108200;1260;58858;-55
2024/02/06 18:07:50;;;;;;;13.70;9.60;;;;;;;8.06;62.46;99067.95;108224;1259;58795;-55
2024/02/06 18:10:18;;;;;;;8.00;3.00;;;;;;;8.17;62.39;99066.75;108193;1259;67382;-56
2024/02/06 18:12:46;;;;;;;12.90;9.70;;;;;;;8.28;62.34;99063.45;108207;1259;70865;-56
2024/02/06 18:15:13;;;;;;;13.20;9.20;;;;;;;8.36;62.36;99061.29;108157;1264;64754;-56
2024/02/06 18:17:42;;;;;;;10.20;4.50;;;;;;;8.41;62.33;99065.48;108208;1260;62349;-56
2024/02/06 18:20:10;;;;;;;13.70;9.50;;;;;;;8.43;62.25;99070.48;108253;1259;58532;-56
2024/02/06 18:22:38;;;;;;;8.60;4.40;;;;;;;8.44;62.14;99067.48;106751;1264;65557;-54
2024/02/06 18:25:06;;;;;;;14.40;10.60;;;;;;;8.42;62.15;99064.46;103741;1259;73441;-55
2024/02/06 18:27:33;;;;;;;11.70;5.10;;;;;;;8.42;62.08;99068.13;103741;1264;63964;-56
2024/02/06 18:30:01;;;;;;;15.00;10.20;;;;;;;8.41;61.88;99066.50;103741;1259;63952;-55
2024/02/06 18:32:29;;;;;;;11.00;4.30;;;;;;;8.39;61.77;99068.20;105407;1260;60646;-55
2024/02/06 18:34:57;;;;;;;12.10;9.00;;;;;;;8.37;61.45;99068.36;103774;1263;67699;-55
2024/02/06 18:37:25;;;;;;;7.40;4.40;;;;;;;8.36;61.26;99069.52;103886;1261;60435;-56
2024/02/06 18:39:52;;;;;;;12.90;9.20;;;;;;;8.40;61.31;99066.80;108296;1258;66021;-54
2024/02/06 18:42:20;;;;;;;8.50;4.20;;;;;;;8.45;61.45;99061.96;108319;1258;58462;-55
2024/02/06 18:44:47;;;;;;;13.10;9.40;;;;;;;8.47;61.61;99061.80;103726;1261;60470;-54
2024/02/06 18:47:15;;;;;;;10.70;4.30;;;;;;;8.46;61.58;99063.30;105475;1264;66981;-54
2024/02/06 18:49:43;;;;;;;12.50;9.20;;;;;;;8.45;61.60;99061.43;103853;1263;60600;-55
2024/02/06 18:52:13;;;;;;;8.50;4.30;;;;;;;8.43;61.84;99065.94;103766;1262;62814;-56
2024/02/06 18:54:42;;;;;;;14.90;10.00;;;;;;;8.42;61.85;99065.77;103704;1259;61413;-56
2024/02/06 18:57:10;;;;;;;8.80;4.70;;;;;;;8.37;61.94;99070.48;107945;1263;61537;-56
2024/02/06 18:59:37;;;;;;;12.60;4.90;;;;;;;8.36;61.95;99066.07;104055;1262;65329;-55
2024/02/06 19:02:05;;;;;;;15.00;9.80;;;;;;;8.39;61.94;99064.54;103744;1259;60639;-52
2024/02/06 19:04:33;;;;;;;8.90;4.20;;;;;;;8.46;62.03;99063.61;103822;1261;64994;-54
2024/02/06 19:07:01;;;;;;;12.30;8.00;;;;;;;8.51;62.11;99062.23;103778;1260;61956;-55
2024/02/06 19:09:28;;;;;;;11.50;7.60;;;;;;;8.56;62.60;99061.86;103829;1264;62302;-54
2024/02/06 19:11:56;;;;;;;7.50;3.10;;;;;;;8.56;62.98;99062.17;104003;1259;67365;-54
2024/02/06 19:14:24;;;;;;;10.10;5.90;;;;;;;8.58;63.66;99064.48;103829;1260;72817;-55
2024/02/06 19:16:51;;;;;;;9.40;5.60;;;;;;;8.60;64.08;99059.82;103707;1259;64145;-55
2024/02/06 19:19:19;;;;;;;5.20;2.20;;;;;;;8.69;64.42;99056.02;108275;1259;60728;-55
2024/02/06 19:21:47;;;;;;;9.60;5.40;;;;;;;8.83;64.49;99053.88;108308;1259;60011;-55
2024/02/06 19:24:14;;;;;;;8.70;3.50;;;;;;;8.97;64.53;99049.98;108268;1259;76103;-55
2024/02/06 19:26:45;;;;;;;10.10;5.90;;;;;;;9.04;64.67;99048.03;106810;1260;61571;-56
2024/02/06 19:29:13;;;;;;;11.60;5.90;;;;;;;9.09;64.95;99046.67;103860;1260;75836;-53
2024/02/06 19:31:41;;;;;;;9.10;5.90;;;;;;;9.12;65.07;99048.16;103764;1260;60568;-54
2024/02/06 19:34:08;;;;;;;5.70;2.00;;;;;;;9.19;64.97;99050.00;103717;1259;60925;-53
2024/02/06 19:36:38;;;;;;;9.10;5.50;;;;;;;9.24;64.83;99046.45;103897;1260;66546;-54
2024/02/06 19:39:07;;;;;;;8.80;5.00;;;;;;;9.28;64.89;99045.75;108282;1259;61741;-55
2024/02/06 19:41:34;;;;;;;8.80;5.50;;;;;;;9.33;64.85;99044.29;108349;1260;77832;-54
2024/02/06 19:44:02;;;;;;;11.90;5.60;;;;;;;9.35;64.92;99042.11;107534;1259;61709;-54
2024/02/06 19:46:30;;;;;;;12.10;5.70;;;;;;;9.36;64.79;99045.17;104811;1259;60526;-54
2024/02/06 19:48:58;;;;;;;11.30;5.50;;;;;;;9.34;64.80;99044.70;107001;1258;63797;-55
2024/02/06 19:51:26;;;;;;;5.90;1.70;;;;;;;9.38;64.76;99047.65;105378;1259;62575;-52
2024/02/06 19:53:54;;;;;;;12.50;5.20;;;;;;;9.42;64.65;99046.16;105351;1260;66020;-54
2024/02/06 19:56:23;;;;;;;9.30;5.50;;;;;;;9.45;64.56;99046.98;104846;1264;60527;-52
2024/02/06 19:58:51;;;;;;;12.60;5.10;;;;;;;9.48;64.47;99047.14;105322;1259;62259;-53
2024/02/06 20:01:20;;;;;;;6.90;2.50;;;;;;;9.49;64.42;99044.84;108307;1258;65715;-55
2024/02/06 20:03:48;;;;;;;8.70;5.10;;;;;;;9.46;64.49;99040.73;105535;1259;63633;-54
2024/02/06 20:06:18;;;;;;;9.90;5.70;;;;;;;9.41;64.50;99037.48;105529;1259;66068;-53
2024/02/06 20:08:47;;;;;;;10.70;5.10;;;;;;;9.37;64.51;99039.86;104743;1260;64015;-54
2024/02/06 20:11:18;;;;;;;11.60;4.80;;;;;;;9.39;64.45;99037.89;104858;1259;60617;-56
2024/02/06 20:13:46;;;;;;;5.70;1.60;;;;;;;9.44;64.25;99036.74;104785;1259;66347;-53
2024/02/06 20:16:14;;;;;;;9.10;5.30;;;;;;;9.48;64.35;99036.27;103784;1259;63575;-55
2024/02/06 20:18:41;;;;;;;10.00;4.90;;;;;;;9.53;64.18;99038.52;104664;1258;63888;-53
2024/02/06 20:21:09;;;;;;;8.70;5.40;;;;;;;9.53;64.06;99037.21;104765;1260;62373;-54
2024/02/06 20:23:38;;;;;;;9.10;2.60;;;;;;;9.51;63.99;99034.63;104747;1260;60546;-54
2024/02/06 20:26:06;;;;;;;11.70;5.70;;;;;;;9.45;63.95;99022.27;104989;1263;76073;-53
2024/02/06 20:28:34;;;;;;;7.00;2.50;;;;;;;9.40;63.89;99020.11;104731;1257;71448;-54
2024/02/06 20:31:03;;;;;;;9.50;5.20;;;;;;;9.40;63.97;99017.69;104793;1260;64053;-53
2024/02/06 20:33:31;;;;;;;4.80;1.50;;;;;;;9.41;63.78;99013.23;105986;1259;61770;-54
2024/02/06 20:35:59;;;;;;;10.80;5.60;;;;;;;9.43;63.69;99011.45;104772;1259;60562;-55
2024/02/06 20:38:26;;;;;;;10.60;5.20;;;;;;;9.44;63.65;99009.77;104704;1260;66072;-54
2024/02/06 20:40:54;;;;;;;10.20;5.10;;;;;;;9.40;63.57;99005.73;104689;1259;61613;-55
2024/02/06 20:43:22;;;;;;;11.70;2.60;;;;;;;9.37;63.82;99006.01;105465;1259;73494;-56
2024/02/06 20:45:50;;;;;;;10.00;5.30;;;;;;;9.35;63.71;99008.21;104643;1264;60547;-55
2024/02/06 20:48:19;;;;;;;12.00;4.90;;;;;;;9.32;63.69;99004.14;105030;1259;60628;-54
2024/02/06 20:50:47;;;;;;;6.60;1.90;;;;;;;9.32;63.63;98997.39;104915;1263;73844;-55
2024/02/06 20:53:15;;;;;;;9.10;4.50;;;;;;;9.37;63.60;98995.20;104652;1259;62254;-53
2024/02/06 20:55:43;;;;;;;5.10;1.70;;;;;;;9.42;63.43;98997.02;104931;1260;71646;-55
2024/02/06 20:58:11;;;;;;;9.80;5.20;;;;;;;9.41;63.35;98998.09;104806;1260;62259;-53
2024/02/06 21:00:39;;;;;;;9.70;4.90;;;;;;;9.40;63.25;98994.89;108234;1259;59089;-55
2024/02/06 21:03:06;;;;;;;8.90;4.80;;;;;;;9.37;63.04;98997.34;108342;1257;76232;-56
2024/02/06 21:05:38;;;;;;;5.50;1.90;;;;;;;9.35;62.96;99000.90;108326;1259;61614;-55
2024/02/06 21:08:06;;;;;;;9.90;4.90;;;;;;;9.39;62.70;98997.32;108286;1259;63826;-56
2024/02/06 21:10:35;;;;;;;4.60;1.70;;;;;;;9.46;62.60;98999.59;104952;1261;60520;-56
2024/02/06 21:13:03;;;;;;;13.20;4.70;;;;;;;9.52;62.43;99002.70;105263;1258;60661;-56
2024/02/06 21:15:33;;;;;;;9.60;4.80;;;;;;;9.53;62.31;99004.90;104765;1259;64978;-56
2024/02/06 21:18:02;;;;;;;10.40;4.60;;;;;;;9.51;62.25;99004.34;104569;1261;60609;-57
2024/02/06 21:20:30;;;;;;;15.80;4.40;;;;;;;9.49;62.11;99002.08;106880;1261;63814;-55
2024/02/06 21:22:58;;;;;;;9.70;4.70;;;;;;;9.46;62.07;98999.20;105348;1260;60447;-58
2024/02/06 21:25:26;;;;;;;4.60;1.60;;;;;;;9.46;61.80;99006.81;105335;1260;60505;-57
2024/02/06 21:27:54;;;;;;;9.70;4.10;;;;;;;9.47;61.48;99002.42;104487;1259;63647;-60
2024/02/06 21:30:22;;;;;;;12.00;4.00;;;;;;;9.50;61.36;99001.63;103838;1259;60666;-59
2024/02/06 21:32:49;;;;;;;8.40;4.50;;;;;;;9.51;61.35;98998.45;104534;1259;66124;-60
2024/02/06 21:35:17;;;;;;;6.20;1.60;;;;;;;9.48;61.35;99001.08;105298;1263;60543;-58
2024/02/06 21:37:45;;;;;;;16.60;4.80;;;;;;;9.45;61.32;98998.46;103887;1259;60647;-56
2024/02/06 21:40:13;;;;;;;7.10;3.80;;;;;;;9.42;61.28;98993.52;108302;1259;65049;-55
2024/02/06 21:42:40;;;;;;;6.60;1.30;;;;;;;9.45;61.17;98994.76;108320;1258;61341;-57
2024/02/06 21:45:08;;;;;;;11.20;4.10;;;;;;;9.52;60.95;98994.30;107150;1259;63794;-58
2024/02/06 21:47:39;;;;;;;8.20;4.10;;;;;;;9.55;61.07;98987.34;105852;1259;60457;-56
2024/02/06 21:50:11;;;;;;;8.90;3.70;;;;;;;9.56;60.96;98984.59;105008;1261;60458;-56
2024/02/06 21:52:39;;;;;;;12.00;4.60;;;;;;;9.55;61.01;98980.77;104359;1259;65793;-54